sensor_id;sensor_type;location;lat;lon;timestamp;temperature;humidity
77496;SHT31;66600;48.378;9.948;2023-05-19T00:01:47;10.32;72.85
77496;SHT31;66600;48.378;9.948;2023-05-19T00:04:13;10.33;72.71
77496;SHT31;66600;48.378;9.948;2023-05-19T00:06:39;10.30;72.91
77496;SHT31;66600;48.378;9.948;2023-05-19T00:09:07;10.30;73.02
77496;SHT31;66600;48.378;9.948;2023-05-19T00:11:33;10.28;73.01
77496;SHT31;66600;48.378;9.948;2023-05-19T00:14:07;10.28;73.81
77496;SHT31;66600;48.378;9.948;2023-05-19T00:16:34;10.23;73.82
77496;SHT31;66600;48.378;9.948;2023-05-19T00:19:02;10.23;74.19
77496;SHT31;66600;48.378;9.948;2023-05-19T00:21:28;10.22;74.32
77496;SHT31;66600;48.378;9.948;2023-05-19T00:23:54;10.20;74.36
77496;SHT31;66600;48.378;9.948;2023-05-19T00:26:19;10.22;74.25
77496;SHT31;66600;48.378;9.948;2023-05-19T00:28:46;10.16;74.23
77496;SHT31;66600;48.378;9.948;2023-05-19T00:31:12;10.12;74.20
77496;SHT31;66600;48.378;9.948;2023-05-19T00:33:37;10.12;74.37
77496;SHT31;66600;48.378;9.948;2023-05-19T00:36:03;10.05;73.98
77496;SHT31;66600;48.378;9.948;2023-05-19T00:38:32;10.01;74.00
77496;SHT31;66600;48.378;9.948;2023-05-19T00:40:59;9.99;74.05
77496;SHT31;66600;48.378;9.948;2023-05-19T00:43:25;9.98;74.17
77496;SHT31;66600;48.378;9.948;2023-05-19T00:45:50;9.95;74.23
77496;SHT31;66600;48.378;9.948;2023-05-19T00:48:16;9.92;74.19
77496;SHT31;66600;48.378;9.948;2023-05-19T00:50:42;9.91;74.44
77496;SHT31;66600;48.378;9.948;2023-05-19T00:53:07;9.91;74.13
77496;SHT31;66600;48.378;9.948;2023-05-19T00:55:33;9.86;74.12
77496;SHT31;66600;48.378;9.948;2023-05-19T00:58:01;9.86;74.27
77496;SHT31;66600;48.378;9.948;2023-05-19T01:00:28;9.84;74.46
77496;SHT31;66600;48.378;9.948;2023-05-19T01:02:54;9.81;74.49
77496;SHT31;66600;48.378;9.948;2023-05-19T01:05:20;9.79;74.39
77496;SHT31;66600;48.378;9.948;2023-05-19T01:07:46;9.78;74.48
77496;SHT31;66600;48.378;9.948;2023-05-19T01:10:11;9.72;74.68
77496;SHT31;66600;48.378;9.948;2023-05-19T01:12:38;9.71;74.30
77496;SHT31;66600;48.378;9.948;2023-05-19T01:15:04;9.72;74.52
77496;SHT31;66600;48.378;9.948;2023-05-19T01:17:58;9.72;74.56
77496;SHT31;66600;48.378;9.948;2023-05-19T01:20:38;9.67;74.73
77496;SHT31;66600;48.378;9.948;2023-05-19T01:24:21;9.65;74.87
77496;SHT31;66600;48.378;9.948;2023-05-19T01:31:16;9.64;74.77
77496;SHT31;66600;48.378;9.948;2023-05-19T01:33:45;9.61;74.71
77496;SHT31;66600;48.378;9.948;2023-05-19T01:36:11;9.58;74.96
77496;SHT31;66600;48.378;9.948;2023-05-19T01:38:38;9.61;75.22
77496;SHT31;66600;48.378;9.948;2023-05-19T01:41:05;9.57;74.76
77496;SHT31;66600;48.378;9.948;2023-05-19T01:43:32;9.57;74.87
77496;SHT31;66600;48.378;9.948;2023-05-19T01:45:57;9.58;75.02
77496;SHT31;66600;48.378;9.948;2023-05-19T01:48:23;9.57;75.02
77496;SHT31;66600;48.378;9.948;2023-05-19T01:50:49;9.51;75.18
77496;SHT31;66600;48.378;9.948;2023-05-19T01:53:15;9.48;75.48
77496;SHT31;66600;48.378;9.948;2023-05-19T01:55:46;9.52;75.28
77496;SHT31;66600;48.378;9.948;2023-05-19T02:01:02;9.47;75.52
77496;SHT31;66600;48.378;9.948;2023-05-19T02:06:20;9.47;75.64
77496;SHT31;66600;48.378;9.948;2023-05-19T02:14:39;9.51;75.57
77496;SHT31;66600;48.378;9.948;2023-05-19T02:17:05;9.45;75.43
77496;SHT31;66600;48.378;9.948;2023-05-19T02:19:33;9.47;75.95
77496;SHT31;66600;48.378;9.948;2023-05-19T02:21:59;9.47;75.63
77496;SHT31;66600;48.378;9.948;2023-05-19T02:24:24;9.45;75.80
77496;SHT31;66600;48.378;9.948;2023-05-19T02:26:50;9.44;76.09
77496;SHT31;66600;48.378;9.948;2023-05-19T02:29:16;9.38;76.03
77496;SHT31;66600;48.378;9.948;2023-05-19T02:31:41;9.38;76.42
77496;SHT31;66600;48.378;9.948;2023-05-19T02:34:07;9.34;76.53
77496;SHT31;66600;48.378;9.948;2023-05-19T02:36:34;9.36;76.82
77496;SHT31;66600;48.378;9.948;2023-05-19T02:39:03;9.37;76.97
77496;SHT31;66600;48.378;9.948;2023-05-19T02:41:29;9.31;77.03
77496;SHT31;66600;48.378;9.948;2023-05-19T02:43:54;9.28;77.11
77496;SHT31;66600;48.378;9.948;2023-05-19T02:46:20;9.28;77.27
77496;SHT31;66600;48.378;9.948;2023-05-19T02:48:45;9.28;76.98
77496;SHT31;66600;48.378;9.948;2023-05-19T02:51:10;9.27;77.04
77496;SHT31;66600;48.378;9.948;2023-05-19T02:53:36;9.26;77.42
77496;SHT31;66600;48.378;9.948;2023-05-19T02:56:01;9.27;77.18
77496;SHT31;66600;48.378;9.948;2023-05-19T02:58:26;9.27;77.14
77496;SHT31;66600;48.378;9.948;2023-05-19T03:00:52;9.33;77.20
77496;SHT31;66600;48.378;9.948;2023-05-19T03:03:17;9.27;77.27
77496;SHT31;66600;48.378;9.948;2023-05-19T03:05:42;9.23;77.37
77496;SHT31;66600;48.378;9.948;2023-05-19T03:08:08;9.22;77.48
77496;SHT31;66600;48.378;9.948;2023-05-19T03:10:34;9.20;77.78
77496;SHT31;66600;48.378;9.948;2023-05-19T03:12:59;9.19;77.56
77496;SHT31;66600;48.378;9.948;2023-05-19T03:15:24;9.19;77.85
77496;SHT31;66600;48.378;9.948;2023-05-19T03:17:49;9.17;78.02
77496;SHT31;66600;48.378;9.948;2023-05-19T03:20:17;9.15;78.03
77496;SHT31;66600;48.378;9.948;2023-05-19T03:22:42;9.15;77.91
77496;SHT31;66600;48.378;9.948;2023-05-19T03:25:08;9.16;77.04
77496;SHT31;66600;48.378;9.948;2023-05-19T03:27:33;9.19;77.26
77496;SHT31;66600;48.378;9.948;2023-05-19T03:29:59;9.20;77.09
77496;SHT31;66600;48.378;9.948;2023-05-19T03:32:24;9.19;77.34
77496;SHT31;66600;48.378;9.948;2023-05-19T03:34:49;9.15;77.16
77496;SHT31;66600;48.378;9.948;2023-05-19T03:37:15;9.19;77.26
77496;SHT31;66600;48.378;9.948;2023-05-19T03:39:40;9.16;77.34
77496;SHT31;66600;48.378;9.948;2023-05-19T03:42:06;9.16;77.17
77496;SHT31;66600;48.378;9.948;2023-05-19T03:44:31;9.13;77.62
77496;SHT31;66600;48.378;9.948;2023-05-19T03:46:56;9.10;77.58
77496;SHT31;66600;48.378;9.948;2023-05-19T03:49:22;9.07;77.91
77496;SHT31;66600;48.378;9.948;2023-05-19T03:51:47;9.05;77.97
77496;SHT31;66600;48.378;9.948;2023-05-19T03:54:12;9.02;77.92
77496;SHT31;66600;48.378;9.948;2023-05-19T03:56:38;8.99;78.14
77496;SHT31;66600;48.378;9.948;2023-05-19T03:59:04;8.98;78.25
77496;SHT31;66600;48.378;9.948;2023-05-19T04:01:35;8.96;78.37
77496;SHT31;66600;48.378;9.948;2023-05-19T04:04:01;8.93;78.22
77496;SHT31;66600;48.378;9.948;2023-05-19T04:06:27;8.98;78.02
77496;SHT31;66600;48.378;9.948;2023-05-19T04:08:52;8.95;78.22
77496;SHT31;66600;48.378;9.948;2023-05-19T04:11:17;8.98;78.15
77496;SHT31;66600;48.378;9.948;2023-05-19T04:13:44;8.95;78.34
77496;SHT31;66600;48.378;9.948;2023-05-19T04:16:10;9.03;78.01
77496;SHT31;66600;48.378;9.948;2023-05-19T04:18:35;9.07;77.74
77496;SHT31;66600;48.378;9.948;2023-05-19T04:21:00;9.09;77.93
77496;SHT31;66600;48.378;9.948;2023-05-19T04:23:26;9.09;77.96
77496;SHT31;66600;48.378;9.948;2023-05-19T04:25:51;9.13;77.92
77496;SHT31;66600;48.378;9.948;2023-05-19T04:28:18;9.15;77.85
77496;SHT31;66600;48.378;9.948;2023-05-19T04:30:43;9.15;77.65
77496;SHT31;66600;48.378;9.948;2023-05-19T04:33:10;9.15;77.61
77496;SHT31;66600;48.378;9.948;2023-05-19T04:35:37;9.20;77.58
77496;SHT31;66600;48.378;9.948;2023-05-19T04:38:03;9.22;77.55
77496;SHT31;66600;48.378;9.948;2023-05-19T04:40:29;9.24;77.49
77496;SHT31;66600;48.378;9.948;2023-05-19T04:42:55;9.27;77.54
77496;SHT31;66600;48.378;9.948;2023-05-19T04:45:21;9.33;77.51
77496;SHT31;66600;48.378;9.948;2023-05-19T04:47:47;9.41;77.13
77496;SHT31;66600;48.378;9.948;2023-05-19T04:50:13;9.40;77.17
77496;SHT31;66600;48.378;9.948;2023-05-19T04:52:39;9.36;76.89
77496;SHT31;66600;48.378;9.948;2023-05-19T04:55:06;9.41;77.22
77496;SHT31;66600;48.378;9.948;2023-05-19T04:57:32;9.28;77.11
77496;SHT31;66600;48.378;9.948;2023-05-19T04:59:57;9.37;77.18
77496;SHT31;66600;48.378;9.948;2023-05-19T05:02:25;9.44;77.24
77496;SHT31;66600;48.378;9.948;2023-05-19T05:04:52;9.36;77.16
77496;SHT31;66600;48.378;9.948;2023-05-19T05:07:21;9.45;77.12
77496;SHT31;66600;48.378;9.948;2023-05-19T05:09:46;9.40;76.80
77496;SHT31;66600;48.378;9.948;2023-05-19T05:12:13;9.47;76.81
77496;SHT31;66600;48.378;9.948;2023-05-19T05:14:39;9.55;76.58
77496;SHT31;66600;48.378;9.948;2023-05-19T05:17:05;9.55;76.39
77496;SHT31;66600;48.378;9.948;2023-05-19T05:19:31;9.65;76.39
77496;SHT31;66600;48.378;9.948;2023-05-19T05:21:56;9.65;76.35
77496;SHT31;66600;48.378;9.948;2023-05-19T05:24:22;9.78;75.84
77496;SHT31;66600;48.378;9.948;2023-05-19T05:26:48;9.57;76.43
77496;SHT31;66600;48.378;9.948;2023-05-19T05:29:13;9.67;76.20
77496;SHT31;66600;48.378;9.948;2023-05-19T05:31:38;9.77;76.53
77496;SHT31;66600;48.378;9.948;2023-05-19T05:34:04;9.86;76.56
77496;SHT31;66600;48.378;9.948;2023-05-19T05:36:29;9.81;76.57
77496;SHT31;66600;48.378;9.948;2023-05-19T05:38:55;9.77;76.70
77496;SHT31;66600;48.378;9.948;2023-05-19T05:41:21;9.77;76.57
77496;SHT31;66600;48.378;9.948;2023-05-19T05:43:46;10.02;76.68
77496;SHT31;66600;48.378;9.948;2023-05-19T05:46:12;10.01;76.48
77496;SHT31;66600;48.378;9.948;2023-05-19T05:48:37;10.12;75.80
77496;SHT31;66600;48.378;9.948;2023-05-19T05:51:04;10.05;76.18
77496;SHT31;66600;48.378;9.948;2023-05-19T05:53:30;9.98;76.28
77496;SHT31;66600;48.378;9.948;2023-05-19T05:55:57;10.17;76.07
77496;SHT31;66600;48.378;9.948;2023-05-19T05:58:23;10.32;75.58
77496;SHT31;66600;48.378;9.948;2023-05-19T06:00:48;10.13;75.77
77496;SHT31;66600;48.378;9.948;2023-05-19T06:03:15;10.29;75.75
77496;SHT31;66600;48.378;9.948;2023-05-19T06:05:40;10.49;75.62
77496;SHT31;66600;48.378;9.948;2023-05-19T06:08:06;10.51;75.45
77496;SHT31;66600;48.378;9.948;2023-05-19T06:10:31;10.43;75.85
77496;SHT31;66600;48.378;9.948;2023-05-19T06:12:57;10.19;76.11
77496;SHT31;66600;48.378;9.948;2023-05-19T06:15:22;10.12;76.55
77496;SHT31;66600;48.378;9.948;2023-05-19T06:17:47;10.17;76.33
77496;SHT31;66600;48.378;9.948;2023-05-19T06:20:13;10.40;75.90
77496;SHT31;66600;48.378;9.948;2023-05-19T06:22:39;10.36;75.90
77496;SHT31;66600;48.378;9.948;2023-05-19T06:25:05;10.60;75.21
77496;SHT31;66600;48.378;9.948;2023-05-19T06:27:31;10.44;75.87
77496;SHT31;66600;48.378;9.948;2023-05-19T06:29:56;10.58;75.68
77496;SHT31;66600;48.378;9.948;2023-05-19T06:32:21;10.41;75.36
77496;SHT31;66600;48.378;9.948;2023-05-19T06:34:47;10.60;75.04
77496;SHT31;66600;48.378;9.948;2023-05-19T06:37:22;10.82;73.94
77496;SHT31;66600;48.378;9.948;2023-05-19T06:39:51;11.06;73.94
77496;SHT31;66600;48.378;9.948;2023-05-19T06:42:20;11.22;73.07
77496;SHT31;66600;48.378;9.948;2023-05-19T06:44:50;11.37;72.54
77496;SHT31;66600;48.378;9.948;2023-05-19T06:47:17;11.15;73.91
77496;SHT31;66600;48.378;9.948;2023-05-19T06:49:46;11.30;73.31
77496;SHT31;66600;48.378;9.948;2023-05-19T06:52:15;11.44;72.73
77496;SHT31;66600;48.378;9.948;2023-05-19T06:54:40;11.53;71.71
77496;SHT31;66600;48.378;9.948;2023-05-19T06:57:05;11.54;71.84
77496;SHT31;66600;48.378;9.948;2023-05-19T06:59:31;11.88;71.47
77496;SHT31;66600;48.378;9.948;2023-05-19T07:01:56;11.95;70.88
77496;SHT31;66600;48.378;9.948;2023-05-19T07:04:21;11.95;71.16
77496;SHT31;66600;48.378;9.948;2023-05-19T07:06:47;11.56;72.14
77496;SHT31;66600;48.378;9.948;2023-05-19T07:09:14;12.04;70.62
77496;SHT31;66600;48.378;9.948;2023-05-19T07:11:39;12.52;70.32
77496;SHT31;66600;48.378;9.948;2023-05-19T07:14:04;12.52;69.32
77496;SHT31;66600;48.378;9.948;2023-05-19T07:16:30;13.14;68.37
77496;SHT31;66600;48.378;9.948;2023-05-19T07:18:55;13.29;67.04
77496;SHT31;66600;48.378;9.948;2023-05-19T07:21:20;13.05;67.64
77496;SHT31;66600;48.378;9.948;2023-05-19T07:23:46;13.04;67.77
77496;SHT31;66600;48.378;9.948;2023-05-19T07:26:11;13.48;66.99
77496;SHT31;66600;48.378;9.948;2023-05-19T07:28:36;13.58;66.58
77496;SHT31;66600;48.378;9.948;2023-05-19T07:31:02;13.15;67.41
77496;SHT31;66600;48.378;9.948;2023-05-19T07:33:27;12.37;69.27
77496;SHT31;66600;48.378;9.948;2023-05-19T07:35:52;12.97;68.13
77496;SHT31;66600;48.378;9.948;2023-05-19T07:38:18;13.76;67.09
77496;SHT31;66600;48.378;9.948;2023-05-19T07:40:43;13.35;66.38
77496;SHT31;66600;48.378;9.948;2023-05-19T07:43:09;13.23;67.91
77496;SHT31;66600;48.378;9.948;2023-05-19T07:45:35;13.43;66.80
77496;SHT31;66600;48.378;9.948;2023-05-19T07:48:00;13.32;67.56
77496;SHT31;66600;48.378;9.948;2023-05-19T07:50:26;12.94;67.83
77496;SHT31;66600;48.378;9.948;2023-05-19T07:52:51;13.22;68.13
77496;SHT31;66600;48.378;9.948;2023-05-19T07:55:16;14.14;66.77
77496;SHT31;66600;48.378;9.948;2023-05-19T07:57:43;14.26;65.39
77496;SHT31;66600;48.378;9.948;2023-05-19T08:00:09;14.46;64.04
77496;SHT31;66600;48.378;9.948;2023-05-19T08:02:36;13.25;66.35
77496;SHT31;66600;48.378;9.948;2023-05-19T08:05:01;13.31;66.25
77496;SHT31;66600;48.378;9.948;2023-05-19T08:07:27;13.62;65.47
77496;SHT31;66600;48.378;9.948;2023-05-19T08:09:52;14.00;63.96
77496;SHT31;66600;48.378;9.948;2023-05-19T08:12:17;14.07;63.84
77496;SHT31;66600;48.378;9.948;2023-05-19T08:14:43;13.98;63.52
77496;SHT31;66600;48.378;9.948;2023-05-19T08:17:08;14.42;63.42
77496;SHT31;66600;48.378;9.948;2023-05-19T08:19:34;13.73;62.82
77496;SHT31;66600;48.378;9.948;2023-05-19T08:21:59;12.73;66.76
77496;SHT31;66600;48.378;9.948;2023-05-19T08:24:26;13.40;65.65
77496;SHT31;66600;48.378;9.948;2023-05-19T08:26:53;13.87;65.10
77496;SHT31;66600;48.378;9.948;2023-05-19T08:29:19;14.20;63.73
77496;SHT31;66600;48.378;9.948;2023-05-19T08:31:44;14.42;63.33
77496;SHT31;66600;48.378;9.948;2023-05-19T08:34:10;14.38;63.58
77496;SHT31;66600;48.378;9.948;2023-05-19T08:36:35;13.90;64.83
77496;SHT31;66600;48.378;9.948;2023-05-19T08:39:00;13.80;64.27
77496;SHT31;66600;48.378;9.948;2023-05-19T08:41:26;13.70;65.49
77496;SHT31;66600;48.378;9.948;2023-05-19T08:43:51;13.52;65.16
77496;SHT31;66600;48.378;9.948;2023-05-19T08:46:17;13.66;65.45
77496;SHT31;66600;48.378;9.948;2023-05-19T08:48:46;14.08;64.88
77496;SHT31;66600;48.378;9.948;2023-05-19T08:51:45;14.58;62.80
77496;SHT31;66600;48.378;9.948;2023-05-19T08:54:15;14.66;62.97
77496;SHT31;66600;48.378;9.948;2023-05-19T08:56:43;14.62;62.38
77496;SHT31;66600;48.378;9.948;2023-05-19T08:59:09;14.48;63.26
77496;SHT31;66600;48.378;9.948;2023-05-19T09:01:36;13.77;64.66
77496;SHT31;66600;48.378;9.948;2023-05-19T09:04:02;14.39;63.54
77496;SHT31;66600;48.378;9.948;2023-05-19T09:06:28;13.23;64.35
77496;SHT31;66600;48.378;9.948;2023-05-19T09:08:56;13.14;65.89
77496;SHT31;66600;48.378;9.948;2023-05-19T09:11:22;13.18;66.38
77496;SHT31;66600;48.378;9.948;2023-05-19T09:13:47;13.23;66.40
77496;SHT31;66600;48.378;9.948;2023-05-19T09:16:14;13.40;66.24
77496;SHT31;66600;48.378;9.948;2023-05-19T09:18:39;12.98;66.41
77496;SHT31;66600;48.378;9.948;2023-05-19T09:21:05;12.93;67.10
77496;SHT31;66600;48.378;9.948;2023-05-19T09:23:32;13.02;66.90
77496;SHT31;66600;48.378;9.948;2023-05-19T09:26:02;12.64;67.39
77496;SHT31;66600;48.378;9.948;2023-05-19T09:28:30;12.77;67.40
77496;SHT31;66600;48.378;9.948;2023-05-19T09:31:08;13.15;66.56
77496;SHT31;66600;48.378;9.948;2023-05-19T09:33:36;13.62;64.50
77496;SHT31;66600;48.378;9.948;2023-05-19T09:36:02;13.10;65.39
77496;SHT31;66600;48.378;9.948;2023-05-19T09:38:30;13.70;64.47
77496;SHT31;66600;48.378;9.948;2023-05-19T09:40:56;13.80;63.76
77496;SHT31;66600;48.378;9.948;2023-05-19T09:43:22;14.20;62.94
77496;SHT31;66600;48.378;9.948;2023-05-19T09:45:48;14.45;61.28
77496;SHT31;66600;48.378;9.948;2023-05-19T09:48:18;14.62;60.17
77496;SHT31;66600;48.378;9.948;2023-05-19T09:50:44;15.20;58.70
77496;SHT31;66600;48.378;9.948;2023-05-19T09:53:13;15.11;59.20
77496;SHT31;66600;48.378;9.948;2023-05-19T09:55:39;14.11;60.92
77496;SHT31;66600;48.378;9.948;2023-05-19T09:58:06;14.66;58.81
77496;SHT31;66600;48.378;9.948;2023-05-19T10:00:32;13.71;61.66
77496;SHT31;66600;48.378;9.948;2023-05-19T10:02:58;14.91;60.22
77496;SHT31;66600;48.378;9.948;2023-05-19T10:05:25;15.70;57.54
77496;SHT31;66600;48.378;9.948;2023-05-19T10:07:53;15.83;55.57
77496;SHT31;66600;48.378;9.948;2023-05-19T10:10:19;14.70;58.67
77496;SHT31;66600;48.378;9.948;2023-05-19T10:12:45;14.75;59.14
77496;SHT31;66600;48.378;9.948;2023-05-19T10:15:12;14.86;59.69
77496;SHT31;66600;48.378;9.948;2023-05-19T10:17:38;15.56;58.65
77496;SHT31;66600;48.378;9.948;2023-05-19T10:20:07;15.79;56.96
77496;SHT31;66600;48.378;9.948;2023-05-19T10:22:33;15.28;57.00
77496;SHT31;66600;48.378;9.948;2023-05-19T10:24:58;14.58;60.08
77496;SHT31;66600;48.378;9.948;2023-05-19T10:27:25;15.32;57.37
77496;SHT31;66600;48.378;9.948;2023-05-19T10:29:55;15.52;56.89
77496;SHT31;66600;48.378;9.948;2023-05-19T10:32:28;16.22;54.82
77496;SHT31;66600;48.378;9.948;2023-05-19T10:35:15;16.54;54.33
77496;SHT31;66600;48.378;9.948;2023-05-19T10:40:21;16.16;54.11
77496;SHT31;66600;48.378;9.948;2023-05-19T10:43:17;15.39;57.79
77496;SHT31;66600;48.378;9.948;2023-05-19T10:45:47;16.45;55.48
77496;SHT31;66600;48.378;9.948;2023-05-19T10:48:16;17.00;53.96
77496;SHT31;66600;48.378;9.948;2023-05-19T10:50:47;16.90;53.93
77496;SHT31;66600;48.378;9.948;2023-05-19T10:53:16;16.58;54.17
77496;SHT31;66600;48.378;9.948;2023-05-19T10:55:44;16.62;54.68
77496;SHT31;66600;48.378;9.948;2023-05-19T10:58:10;16.32;55.86
77496;SHT31;66600;48.378;9.948;2023-05-19T11:00:38;16.37;55.23
77496;SHT31;66600;48.378;9.948;2023-05-19T11:03:13;16.49;55.92
77496;SHT31;66600;48.378;9.948;2023-05-19T11:05:38;15.90;57.19
77496;SHT31;66600;48.378;9.948;2023-05-19T11:08:05;15.44;57.34
77496;SHT31;66600;48.378;9.948;2023-05-19T11:10:32;15.30;58.86
77496;SHT31;66600;48.378;9.948;2023-05-19T11:12:58;15.48;58.70
77496;SHT31;66600;48.378;9.948;2023-05-19T11:15:25;15.86;57.34
77496;SHT31;66600;48.378;9.948;2023-05-19T11:17:52;15.85;57.73
77496;SHT31;66600;48.378;9.948;2023-05-19T11:20:28;15.31;57.60
77496;SHT31;66600;48.378;9.948;2023-05-19T11:23:19;14.77;59.56
77496;SHT31;66600;48.378;9.948;2023-05-19T11:25:49;14.83;60.04
77496;SHT31;66600;48.378;9.948;2023-05-19T11:28:20;14.89;61.12
77496;SHT31;66600;48.378;9.948;2023-05-19T11:30:50;14.31;61.01
77496;SHT31;66600;48.378;9.948;2023-05-19T11:33:19;14.76;61.04
77496;SHT31;66600;48.378;9.948;2023-05-19T11:35:49;13.84;61.42
77496;SHT31;66600;48.378;9.948;2023-05-19T11:38:19;13.81;62.63
77496;SHT31;66600;48.378;9.948;2023-05-19T11:40:45;14.45;61.90
77496;SHT31;66600;48.378;9.948;2023-05-19T11:43:12;15.08;60.79
77496;SHT31;66600;48.378;9.948;2023-05-19T11:45:37;14.79;61.13
77496;SHT31;66600;48.378;9.948;2023-05-19T11:48:03;15.12;60.00
77496;SHT31;66600;48.378;9.948;2023-05-19T11:50:30;14.11;62.55
77496;SHT31;66600;48.378;9.948;2023-05-19T11:52:56;14.75;61.67
77496;SHT31;66600;48.378;9.948;2023-05-19T11:55:23;14.07;62.84
77496;SHT31;66600;48.378;9.948;2023-05-19T11:57:59;13.70;65.01
77496;SHT31;66600;48.378;9.948;2023-05-19T12:00:26;13.71;64.75
77496;SHT31;66600;48.378;9.948;2023-05-19T12:02:51;14.05;63.49
77496;SHT31;66600;48.378;9.948;2023-05-19T12:05:21;14.51;62.15
77496;SHT31;66600;48.378;9.948;2023-05-19T12:07:47;14.68;61.65
77496;SHT31;66600;48.378;9.948;2023-05-19T12:10:22;14.29;62.88
77496;SHT31;66600;48.378;9.948;2023-05-19T12:12:49;14.34;63.10
77496;SHT31;66600;48.378;9.948;2023-05-19T12:15:20;14.86;62.27
77496;SHT31;66600;48.378;9.948;2023-05-19T12:17:49;14.97;60.47
77496;SHT31;66600;48.378;9.948;2023-05-19T12:20:15;14.68;60.69
77496;SHT31;66600;48.378;9.948;2023-05-19T12:22:41;15.31;59.43
77496;SHT31;66600;48.378;9.948;2023-05-19T12:25:07;15.86;58.55
77496;SHT31;66600;48.378;9.948;2023-05-19T12:27:35;15.79;57.93
77496;SHT31;66600;48.378;9.948;2023-05-19T12:30:03;15.55;59.33
77496;SHT31;66600;48.378;9.948;2023-05-19T12:32:29;14.20;61.46
77496;SHT31;66600;48.378;9.948;2023-05-19T12:34:55;14.26;62.12
77496;SHT31;66600;48.378;9.948;2023-05-19T12:37:21;13.98;64.29
77496;SHT31;66600;48.378;9.948;2023-05-19T12:39:49;13.52;65.35
77496;SHT31;66600;48.378;9.948;2023-05-19T12:42:15;14.45;63.48
77496;SHT31;66600;48.378;9.948;2023-05-19T12:44:45;14.86;62.20
77496;SHT31;66600;48.378;9.948;2023-05-19T12:47:11;14.70;61.99
77496;SHT31;66600;48.378;9.948;2023-05-19T12:52:23;14.63;62.29
77496;SHT31;66600;48.378;9.948;2023-05-19T12:54:49;14.96;62.04
77496;SHT31;66600;48.378;9.948;2023-05-19T12:57:21;14.75;62.53
77496;SHT31;66600;48.378;9.948;2023-05-19T12:59:47;13.78;63.78
77496;SHT31;66600;48.378;9.948;2023-05-19T13:02:13;14.24;63.66
77496;SHT31;66600;48.378;9.948;2023-05-19T13:04:39;13.66;64.62
77496;SHT31;66600;48.378;9.948;2023-05-19T13:07:04;14.17;64.28
77496;SHT31;66600;48.378;9.948;2023-05-19T13:09:29;14.48;63.12
77496;SHT31;66600;48.378;9.948;2023-05-19T13:11:58;14.21;62.81
77496;SHT31;66600;48.378;9.948;2023-05-19T13:14:24;13.94;63.57
77496;SHT31;66600;48.378;9.948;2023-05-19T13:16:49;13.56;64.47
77496;SHT31;66600;48.378;9.948;2023-05-19T13:19:17;13.76;64.33
77496;SHT31;66600;48.378;9.948;2023-05-19T13:21:43;13.86;64.62
77496;SHT31;66600;48.378;9.948;2023-05-19T13:24:10;13.77;64.27
77496;SHT31;66600;48.378;9.948;2023-05-19T13:26:35;13.93;65.14
77496;SHT31;66600;48.378;9.948;2023-05-19T13:29:01;14.32;63.96
77496;SHT31;66600;48.378;9.948;2023-05-19T13:31:26;14.39;63.10
77496;SHT31;66600;48.378;9.948;2023-05-19T13:33:52;14.07;62.84
77496;SHT31;66600;48.378;9.948;2023-05-19T13:36:17;14.31;63.71
77496;SHT31;66600;48.378;9.948;2023-05-19T13:38:42;14.28;62.94
77496;SHT31;66600;48.378;9.948;2023-05-19T13:41:08;14.18;63.42
77496;SHT31;66600;48.378;9.948;2023-05-19T13:43:33;14.07;64.38
77496;SHT31;66600;48.378;9.948;2023-05-19T13:45:59;13.67;64.11
77496;SHT31;66600;48.378;9.948;2023-05-19T13:48:24;13.81;65.28
77496;SHT31;66600;48.378;9.948;2023-05-19T13:50:49;13.98;64.77
77496;SHT31;66600;48.378;9.948;2023-05-19T13:53:18;14.25;63.99
77496;SHT31;66600;48.378;9.948;2023-05-19T13:55:43;14.26;63.67
77496;SHT31;66600;48.378;9.948;2023-05-19T13:58:09;14.51;64.06
77496;SHT31;66600;48.378;9.948;2023-05-19T14:00:35;14.84;63.20
77496;SHT31;66600;48.378;9.948;2023-05-19T14:03:01;15.21;62.37
77496;SHT31;66600;48.378;9.948;2023-05-19T14:05:26;15.06;61.51
77496;SHT31;66600;48.378;9.948;2023-05-19T14:07:53;14.77;61.24
77496;SHT31;66600;48.378;9.948;2023-05-19T14:10:18;14.48;63.50
77496;SHT31;66600;48.378;9.948;2023-05-19T14:12:44;14.35;63.66
77496;SHT31;66600;48.378;9.948;2023-05-19T14:15:09;14.83;63.31
77496;SHT31;66600;48.378;9.948;2023-05-19T14:17:34;14.73;61.91
77496;SHT31;66600;48.378;9.948;2023-05-19T14:20:00;13.78;65.35
77496;SHT31;66600;48.378;9.948;2023-05-19T14:22:25;13.93;65.41
77496;SHT31;66600;48.378;9.948;2023-05-19T14:24:51;14.25;64.08
77496;SHT31;66600;48.378;9.948;2023-05-19T14:27:16;14.21;65.01
77496;SHT31;66600;48.378;9.948;2023-05-19T14:29:41;14.97;62.82
77496;SHT31;66600;48.378;9.948;2023-05-19T14:32:07;14.76;61.77
77496;SHT31;66600;48.378;9.948;2023-05-19T14:34:32;14.96;62.58
77496;SHT31;66600;48.378;9.948;2023-05-19T14:36:59;14.83;63.06
77496;SHT31;66600;48.378;9.948;2023-05-19T14:39:24;15.38;62.29
77496;SHT31;66600;48.378;9.948;2023-05-19T14:41:50;15.34;62.06
77496;SHT31;66600;48.378;9.948;2023-05-19T14:44:17;14.41;63.71
77496;SHT31;66600;48.378;9.948;2023-05-19T14:46:42;14.56;63.45
77496;SHT31;66600;48.378;9.948;2023-05-19T14:49:07;14.59;62.86
77496;SHT31;66600;48.378;9.948;2023-05-19T14:51:33;14.15;64.81
77496;SHT31;66600;48.378;9.948;2023-05-19T14:53:58;13.97;64.93
77496;SHT31;66600;48.378;9.948;2023-05-19T14:56:25;14.10;64.90
77496;SHT31;66600;48.378;9.948;2023-05-19T14:58:50;14.11;64.04
77496;SHT31;66600;48.378;9.948;2023-05-19T15:01:15;13.97;66.30
77496;SHT31;66600;48.378;9.948;2023-05-19T15:03:41;14.48;64.78
77496;SHT31;66600;48.378;9.948;2023-05-19T15:06:09;14.17;64.58
77496;SHT31;66600;48.378;9.948;2023-05-19T15:08:35;14.41;64.69
77496;SHT31;66600;48.378;9.948;2023-05-19T15:11:02;14.49;64.44
77496;SHT31;66600;48.378;9.948;2023-05-19T15:13:27;14.15;65.10
77496;SHT31;66600;48.378;9.948;2023-05-19T15:15:53;13.91;65.72
77496;SHT31;66600;48.378;9.948;2023-05-19T15:18:19;14.29;65.13
77496;SHT31;66600;48.378;9.948;2023-05-19T15:20:44;13.87;66.01
77496;SHT31;66600;48.378;9.948;2023-05-19T15:23:10;14.22;65.68
77496;SHT31;66600;48.378;9.948;2023-05-19T15:25:36;14.20;64.48
77496;SHT31;66600;48.378;9.948;2023-05-19T15:28:01;14.39;64.74
77496;SHT31;66600;48.378;9.948;2023-05-19T15:30:27;14.01;65.32
77496;SHT31;66600;48.378;9.948;2023-05-19T15:32:52;14.32;65.53
77496;SHT31;66600;48.378;9.948;2023-05-19T15:35:17;14.25;65.18
77496;SHT31;66600;48.378;9.948;2023-05-19T15:37:43;14.04;66.07
77496;SHT31;66600;48.378;9.948;2023-05-19T15:40:08;13.98;65.97
77496;SHT31;66600;48.378;9.948;2023-05-19T15:42:34;14.13;66.52
77496;SHT31;66600;48.378;9.948;2023-05-19T15:44:59;13.93;66.66
77496;SHT31;66600;48.378;9.948;2023-05-19T15:47:25;13.97;66.47
77496;SHT31;66600;48.378;9.948;2023-05-19T15:49:50;14.07;66.53
77496;SHT31;66600;48.378;9.948;2023-05-19T15:52:15;14.21;66.02
77496;SHT31;66600;48.378;9.948;2023-05-19T15:54:41;14.18;66.14